createdAt,value
2023-05-04T00:01:47.942Z,6.26
2023-05-04T00:04:14.533Z,6.23
2023-05-04T00:06:41.069Z,6.16
2023-05-04T00:09:07.617Z,6.11
2023-05-04T00:11:33.938Z,6.07
2023-05-04T00:14:00.399Z,6.02
2023-05-04T00:16:27.151Z,5.97
2023-05-04T00:18:53.630Z,5.94
2023-05-04T00:21:20.101Z,5.95
2023-05-04T00:23:46.451Z,6.01
2023-05-04T00:26:13.882Z,5.99
2023-05-04T00:28:40.588Z,5.92
2023-05-04T00:31:32.197Z,5.88
2023-05-04T00:33:58.578Z,5.72
2023-05-04T00:36:25.119Z,5.72
2023-05-04T00:38:54.375Z,5.75
2023-05-04T00:41:21.606Z,5.70
2023-05-04T00:44:06.307Z,5.65
2023-05-04T00:46:33.266Z,5.51
2023-05-04T00:48:59.763Z,5.43
2023-05-04T00:51:26.650Z,5.37
2023-05-04T00:53:57.574Z,5.41
2023-05-04T00:56:25.549Z,5.46
2023-05-04T00:58:53.874Z,5.47
2023-05-04T01:01:21.670Z,5.46
2023-05-04T01:03:50.472Z,5.38
2023-05-04T01:06:52.181Z,5.30
2023-05-04T01:09:41.470Z,5.16
2023-05-04T01:12:16.855Z,5.10
2023-05-04T01:14:43.939Z,5.10
2023-05-04T01:17:11.738Z,5.07
2023-05-04T01:19:38.377Z,5.06
2023-05-04T01:22:04.654Z,5.06
2023-05-04T01:24:31.338Z,5.03
2023-05-04T01:27:15.177Z,5.00
2023-05-04T01:29:48.990Z,4.97
2023-05-04T01:32:18.069Z,4.95
2023-05-04T01:34:44.936Z,4.92
2023-05-04T01:37:11.320Z,4.88
2023-05-04T01:39:38.072Z,4.86
2023-05-04T01:42:04.456Z,4.85
2023-05-04T01:44:30.822Z,4.84
2023-05-04T01:46:57.210Z,4.78
2023-05-04T01:49:23.572Z,4.69
2023-05-04T01:51:50.067Z,4.67
2023-05-04T01:54:16.461Z,4.66
2023-05-04T01:56:42.907Z,4.63
2023-05-04T01:59:09.218Z,4.60
2023-05-04T02:01:36.195Z,4.60
2023-05-04T02:04:03.078Z,4.56
2023-05-04T02:06:30.080Z,4.52
2023-05-04T02:08:56.479Z,4.50
2023-05-04T02:11:22.956Z,4.49
2023-05-04T02:13:49.366Z,4.42
2023-05-04T02:16:15.887Z,4.40
2023-05-04T02:18:42.331Z,4.39
2023-05-04T02:21:08.688Z,4.36
2023-05-04T02:23:35.030Z,4.34
2023-05-04T02:26:01.944Z,4.36
2023-05-04T02:28:28.373Z,4.34
2023-05-04T02:30:54.751Z,4.33
2023-05-04T02:33:21.095Z,4.35
2023-05-04T02:35:47.476Z,4.35
2023-05-04T02:38:13.872Z,4.33
2023-05-04T02:40:40.833Z,4.28
2023-05-04T02:43:07.144Z,4.22
2023-05-04T02:45:34.955Z,4.19
2023-05-04T02:48:01.821Z,4.19
2023-05-04T02:50:28.158Z,4.15
2023-05-04T02:53:21.181Z,4.11
2023-05-04T02:55:47.605Z,4.03
2023-05-04T02:58:13.918Z,4.03
2023-05-04T03:04:34.816Z,3.78
2023-05-04T03:07:01.193Z,3.82
2023-05-04T03:09:27.524Z,3.85
2023-05-04T03:11:54.371Z,3.87
2023-05-04T03:14:21.004Z,3.90
2023-05-04T03:16:47.432Z,3.91
2023-05-04T03:19:13.934Z,3.96
2023-05-04T03:21:40.355Z,4.03
2023-05-04T03:24:06.634Z,4.03
2023-05-04T03:26:32.984Z,4.04
2023-05-04T03:28:59.570Z,4.10
2023-05-04T03:31:26.449Z,4.14
2023-05-04T03:33:52.850Z,4.21
2023-05-04T03:36:19.207Z,4.22
2023-05-04T03:38:46.207Z,4.24
2023-05-04T03:41:13.239Z,4.28
2023-05-04T03:43:39.791Z,4.28
2023-05-04T03:46:06.120Z,4.38
2023-05-04T03:48:32.493Z,4.45
2023-05-04T03:50:58.962Z,4.57
2023-05-04T03:53:28.815Z,4.70
2023-05-04T03:55:55.312Z,4.80
2023-05-04T03:58:21.727Z,4.93
2023-05-04T04:00:50.870Z,5.06
2023-05-04T04:03:18.122Z,5.15
2023-05-04T04:05:44.509Z,5.23
2023-05-04T04:08:10.924Z,5.29
2023-05-04T04:10:37.342Z,5.39
2023-05-04T04:13:03.920Z,5.51
2023-05-04T04:15:30.382Z,5.65
2023-05-04T04:17:56.748Z,5.72
2023-05-04T04:20:23.260Z,5.78
2023-05-04T04:22:49.743Z,5.88
2023-05-04T04:25:16.031Z,6.06
2023-05-04T04:28:12.950Z,6.18
2023-05-04T04:30:40.190Z,6.34
2023-05-04T04:33:07.214Z,6.53
2023-05-04T04:35:34.422Z,6.72
2023-05-04T04:38:03.548Z,6.95
2023-05-04T04:40:30.346Z,7.15
2023-05-04T04:42:56.854Z,7.36
2023-05-04T04:45:23.421Z,7.48
2023-05-04T04:51:59.020Z,7.78
2023-05-04T04:54:26.715Z,8.07
2023-05-04T04:56:53.272Z,8.21
2023-05-04T04:59:20.032Z,8.21
2023-05-04T05:01:46.428Z,8.13
2023-05-04T05:04:13.307Z,8.24
2023-05-04T05:06:39.761Z,8.38
2023-05-04T05:09:06.219Z,8.43
2023-05-04T05:11:32.540Z,8.63
2023-05-04T05:13:59.322Z,8.74
2023-05-04T05:16:26.240Z,8.94
2023-05-04T05:18:52.778Z,9.09
2023-05-04T05:21:19.036Z,9.29
2023-05-04T05:23:45.372Z,9.46
2023-05-04T05:26:11.721Z,9.66
2023-05-04T05:28:38.109Z,10.07
2023-05-04T05:31:04.850Z,10.85
2023-05-04T05:33:31.119Z,11.82
2023-05-04T05:35:57.591Z,12.32
2023-05-04T05:38:24.065Z,12.47
2023-05-04T05:40:51.522Z,12.91
2023-05-04T05:43:17.956Z,13.79
2023-05-04T05:45:44.387Z,14.67
2023-05-04T05:48:11.012Z,14.94
2023-05-04T05:50:37.412Z,14.90
2023-05-04T05:53:03.750Z,15.38
2023-05-04T05:55:30.029Z,15.83
2023-05-04T06:02:15.006Z,15.72
2023-05-04T06:04:42.171Z,16.83
2023-05-04T06:07:08.601Z,17.03
2023-05-04T06:13:47.603Z,16.75
2023-05-04T06:16:14.156Z,17.43
2023-05-04T06:18:40.635Z,17.63
2023-05-04T06:21:07.322Z,17.14
2023-05-04T06:23:33.682Z,17.27
2023-05-04T06:26:00.165Z,17.52
2023-05-04T06:28:26.777Z,17.38
2023-05-04T06:31:56.361Z,17.52
2023-05-04T06:34:25.878Z,17.89
2023-05-04T06:36:52.199Z,18.06
2023-05-04T06:39:19.264Z,17.58
2023-05-04T06:41:45.976Z,17.34
2023-05-04T06:44:17.135Z,17.51
2023-05-04T06:46:43.467Z,17.99
2023-05-04T06:49:09.845Z,18.04
2023-05-04T06:51:39.616Z,17.85
2023-05-04T06:54:06.092Z,17.88
2023-05-04T06:56:32.444Z,17.81
2023-05-04T06:58:58.838Z,18.21
2023-05-04T07:01:25.533Z,18.12
2023-05-04T07:03:52.115Z,18.01
2023-05-04T07:06:19.001Z,18.47
2023-05-04T07:08:45.304Z,18.81
2023-05-04T07:11:11.836Z,19.55
2023-05-04T07:13:38.552Z,19.63
2023-05-04T07:16:08.528Z,19.22
2023-05-04T07:18:35.000Z,18.67
2023-05-04T07:21:16.302Z,19.14
2023-05-04T07:23:48.048Z,19.03
2023-05-04T07:26:14.465Z,18.72
2023-05-04T07:28:43.018Z,18.97
2023-05-04T07:31:12.234Z,19.26
2023-05-04T07:33:39.169Z,18.84
2023-05-04T07:36:06.445Z,19.16
2023-05-04T07:38:33.522Z,20.04
2023-05-04T07:41:00.119Z,20.45
2023-05-04T07:43:26.481Z,20.19
2023-05-04T07:45:53.382Z,20.45
2023-05-04T07:48:20.354Z,20.68
2023-05-04T07:50:47.077Z,20.59
2023-05-04T07:53:13.592Z,20.73
2023-05-04T07:55:40.272Z,20.26
2023-05-04T07:58:06.710Z,20.47
2023-05-04T08:00:33.031Z,19.23
2023-05-04T08:02:59.505Z,19.38
2023-05-04T08:05:25.852Z,20.13
2023-05-04T08:07:52.165Z,20.72
2023-05-04T08:10:21.313Z,20.38
2023-05-04T08:12:47.766Z,20.89
2023-05-04T08:15:14.250Z,21.75
2023-05-04T08:17:40.803Z,21.96
2023-05-04T08:20:08.907Z,22.08
2023-05-04T08:22:35.602Z,21.00
2023-05-04T08:25:02.545Z,20.52
2023-05-04T08:27:28.974Z,21.08
2023-05-04T08:29:57.117Z,22.48
2023-05-04T08:32:23.554Z,22.90
2023-05-04T08:34:51.044Z,21.89
2023-05-04T08:37:17.630Z,20.58
2023-05-04T08:39:44.011Z,19.48
2023-05-04T08:42:11.394Z,19.62
2023-05-04T08:44:37.821Z,19.40
2023-05-04T08:47:04.316Z,19.22
2023-05-04T08:49:30.678Z,19.67
2023-05-04T08:51:58.604Z,20.42
2023-05-04T08:54:26.699Z,20.74
2023-05-04T08:56:54.465Z,20.46
2023-05-04T08:59:22.800Z,20.65
2023-05-04T09:01:53.861Z,21.21
2023-05-04T09:04:21.719Z,22.12
2023-05-04T09:06:48.285Z,23.60
2023-05-04T09:09:14.827Z,25.02
2023-05-04T09:11:41.346Z,26.16
2023-05-04T09:14:07.667Z,26.97
2023-05-04T09:16:37.480Z,27.57
2023-05-04T09:19:16.858Z,28.03
2023-05-04T09:21:43.816Z,28.02
2023-05-04T09:24:11.924Z,28.21
2023-05-04T09:26:38.618Z,28.04
2023-05-04T09:29:15.120Z,26.88
2023-05-04T09:31:52.006Z,24.74
2023-05-04T09:34:22.477Z,23.56
2023-05-04T09:37:02.746Z,22.02
2023-05-04T09:39:32.433Z,22.32
2023-05-04T09:41:58.760Z,23.99
2023-05-04T09:44:29.344Z,23.00
2023-05-04T09:46:59.190Z,23.19
2023-05-04T09:49:30.486Z,24.75
2023-05-04T09:51:58.640Z,25.43
2023-05-04T09:54:26.516Z,24.13
2023-05-04T09:57:01.945Z,24.74
2023-05-04T09:59:32.853Z,25.12
2023-05-04T10:02:07.498Z,26.19
2023-05-04T10:04:42.895Z,25.78
2023-05-04T10:07:09.160Z,26.42
2023-05-04T10:09:35.608Z,26.27
2023-05-04T10:12:04.996Z,26.89
2023-05-04T10:14:34.019Z,26.42
2023-05-04T10:17:16.023Z,26.88
2023-05-04T10:19:57.439Z,26.19
2023-05-04T10:22:52.845Z,25.63
2023-05-04T10:25:54.723Z,25.61
2023-05-04T10:28:39.315Z,26.53
2023-05-04T10:31:06.717Z,26.47
2023-05-04T10:33:41.259Z,27.73
2023-05-04T10:36:08.874Z,28.02
2023-05-04T10:38:37.135Z,29.39
2023-05-04T10:41:17.438Z,29.90
2023-05-04T10:43:52.838Z,30.44
2023-05-04T10:46:20.905Z,30.92
2023-05-04T10:48:47.950Z,30.64
2023-05-04T10:51:22.373Z,29.80
2023-05-04T10:53:49.297Z,29.39
2023-05-04T10:56:26.366Z,29.45
2023-05-04T10:58:54.047Z,29.89
2023-05-04T11:01:21.326Z,29.84
2023-05-04T11:03:51.562Z,30.07
2023-05-04T11:06:24.101Z,31.68
2023-05-04T11:09:02.250Z,33.31
2023-05-04T11:11:28.796Z,33.66
2023-05-04T11:13:56.378Z,34.54
2023-05-04T11:16:23.923Z,35.64
2023-05-04T11:18:50.597Z,36.43
2023-05-04T11:21:26.965Z,36.74
2023-05-04T11:23:59.683Z,35.19
2023-05-04T11:26:27.631Z,34.97
2023-05-04T11:28:54.090Z,33.39
2023-05-04T11:31:20.847Z,33.44
2023-05-04T11:33:54.111Z,33.73
2023-05-04T11:36:21.752Z,31.63
2023-05-04T11:38:49.113Z,29.98
2023-05-04T11:41:15.681Z,29.12
2023-05-04T11:43:44.476Z,29.77
2023-05-04T11:46:12.069Z,31.70
2023-05-04T11:48:39.080Z,33.05
2023-05-04T11:51:06.115Z,32.98
2023-05-04T11:53:36.798Z,33.06
2023-05-04T11:56:07.078Z,34.15
2023-05-04T11:58:33.837Z,35.16
2023-05-04T12:01:00.344Z,35.94
2023-05-04T12:03:43.879Z,36.18
2023-05-04T12:06:15.032Z,36.13
2023-05-04T12:08:41.526Z,35.74
2023-05-04T12:11:20.796Z,35.78
2023-05-04T12:13:48.783Z,35.52
2023-05-04T12:16:19.832Z,35.90
2023-05-04T12:18:47.269Z,36.70
2023-05-04T12:21:17.901Z,36.27
2023-05-04T12:23:45.443Z,35.46
2023-05-04T12:26:12.875Z,35.08
2023-05-04T12:28:41.116Z,33.94
2023-05-04T12:31:08.230Z,33.86
2023-05-04T12:33:35.392Z,32.99
2023-05-04T12:36:04.104Z,31.18
2023-05-04T12:38:31.271Z,30.72
2023-05-04T12:41:00.185Z,31.33
2023-05-04T12:43:26.628Z,31.98
2023-05-04T12:45:53.844Z,33.11
2023-05-04T12:48:20.959Z,33.79
2023-05-04T12:50:49.473Z,33.56
2023-05-04T12:53:17.325Z,33.15
2023-05-04T12:55:44.022Z,33.21
2023-05-04T12:58:10.636Z,33.70
2023-05-04T13:00:38.121Z,32.74
2023-05-04T13:03:05.014Z,32.16
2023-05-04T13:05:31.498Z,33.12
2023-05-04T13:07:57.834Z,33.46
2023-05-04T13:10:24.450Z,33.86
2023-05-04T13:12:51.216Z,34.24
2023-05-04T13:15:17.746Z,33.87
2023-05-04T13:17:44.461Z,33.66
2023-05-04T13:20:12.491Z,33.56
2023-05-04T13:22:40.163Z,32.40
2023-05-04T13:25:07.262Z,31.99
2023-05-04T13:27:59.465Z,32.42
2023-05-04T13:30:25.838Z,31.44
2023-05-04T13:32:52.294Z,30.78
2023-05-04T13:35:18.912Z,29.84
2023-05-04T13:37:45.636Z,30.83
2023-05-04T13:40:13.034Z,31.32
2023-05-04T13:42:39.543Z,29.89
2023-05-04T13:45:07.028Z,29.15
2023-05-04T13:48:25.148Z,29.24
2023-05-04T13:50:51.916Z,29.57
2023-05-04T13:53:18.819Z,29.95
2023-05-04T13:55:45.538Z,30.23
2023-05-04T13:58:11.819Z,31.21
2023-05-04T14:00:38.266Z,32.11
2023-05-04T14:03:04.806Z,32.72
2023-05-04T14:05:31.528Z,32.59
2023-05-04T14:07:58.060Z,32.75
2023-05-04T14:10:24.476Z,32.79
2023-05-04T14:12:50.807Z,32.84
2023-05-04T14:15:21.638Z,32.26
2023-05-04T14:17:49.106Z,31.77
2023-05-04T14:20:15.418Z,30.32
2023-05-04T14:22:41.682Z,31.07
2023-05-04T14:25:08.485Z,32.20
2023-05-04T14:27:35.305Z,32.38
2023-05-04T14:30:03.195Z,32.51
2023-05-04T14:32:29.809Z,33.35
2023-05-04T14:35:05.740Z,33.18
2023-05-04T14:37:37.364Z,32.86
2023-05-04T14:40:10.123Z,32.97
2023-05-04T14:42:37.813Z,32.90
2023-05-04T14:45:06.137Z,33.99
2023-05-04T14:47:33.098Z,34.04
2023-05-04T14:50:00.759Z,34.40
2023-05-04T14:52:27.218Z,34.51
2023-05-04T14:54:53.597Z,34.21
2023-05-04T14:57:20.011Z,34.58
2023-05-04T14:59:47.186Z,34.99
2023-05-04T15:02:13.740Z,35.64
2023-05-04T15:04:40.148Z,36.09
2023-05-04T15:07:07.498Z,36.52
2023-05-04T15:09:37.101Z,36.01
2023-05-04T15:12:04.103Z,35.64
2023-05-04T15:14:30.415Z,36.19
2023-05-04T15:16:56.894Z,36.73
2023-05-04T15:19:23.324Z,37.29
2023-05-04T15:21:49.901Z,36.81
2023-05-04T15:24:16.606Z,36.82
2023-05-04T15:26:43.154Z,36.76
2023-05-04T15:29:09.498Z,37.21
2023-05-04T15:31:35.969Z,38.09
2023-05-04T15:34:02.580Z,38.83
2023-05-04T15:36:31.038Z,39.81
2023-05-04T15:38:57.656Z,40.35
2023-05-04T15:41:24.105Z,40.25
2023-05-04T15:43:50.436Z,39.52
2023-05-04T15:46:16.938Z,39.34
2023-05-04T15:48:43.529Z,39.15
2023-05-04T15:51:11.366Z,39.31
2023-05-04T15:54:34.866Z,39.52
2023-05-04T15:57:02.956Z,39.67
2023-05-04T15:59:29.463Z,39.13
2023-05-04T16:01:55.855Z,37.61
2023-05-04T16:04:22.282Z,36.37
2023-05-04T16:06:48.653Z,36.47
2023-05-04T16:09:16.534Z,36.77
2023-05-04T16:11:46.297Z,35.89
2023-05-04T16:14:13.521Z,33.42
2023-05-04T16:16:40.795Z,30.73
2023-05-04T16:19:08.848Z,28.69
2023-05-04T16:21:36.810Z,27.45
2023-05-04T16:24:04.004Z,26.45
2023-05-04T16:26:30.363Z,25.92
2023-05-04T16:28:56.799Z,25.43
2023-05-04T16:31:23.136Z,25.11
2023-05-04T16:33:49.565Z,24.78
2023-05-04T16:36:15.919Z,24.51
2023-05-04T16:38:42.319Z,24.09
2023-05-04T16:41:08.623Z,23.68
2023-05-04T16:43:35.069Z,23.35
2023-05-04T16:46:01.966Z,23.11
2023-05-04T16:48:28.423Z,22.89
2023-05-04T16:50:54.797Z,22.60
2023-05-04T16:53:21.199Z,22.35
2023-05-04T16:55:47.628Z,22.30
2023-05-04T16:58:13.950Z,22.14
2023-05-04T17:00:41.802Z,21.92
2023-05-04T17:03:08.261Z,21.70
2023-05-04T17:05:35.022Z,21.53
2023-05-04T17:08:01.486Z,21.39
2023-05-04T17:10:27.713Z,21.22
2023-05-04T17:12:54.855Z,21.05
2023-05-04T17:15:26.130Z,20.89
2023-05-04T17:17:54.879Z,20.66
2023-05-04T17:20:23.351Z,20.46
2023-05-04T17:22:51.182Z,20.37
2023-05-04T17:25:17.639Z,20.24
2023-05-04T17:28:09.904Z,20.14
2023-05-04T17:30:36.682Z,19.94
2023-05-04T17:33:03.320Z,19.78
2023-05-04T17:35:29.693Z,19.69
2023-05-04T17:37:58.355Z,19.64
2023-05-04T17:40:28.416Z,19.57
2023-05-04T17:42:55.279Z,19.46
2023-05-04T17:45:32.368Z,19.32
2023-05-04T17:47:59.029Z,19.09
2023-05-04T17:50:25.630Z,18.96
2023-05-04T17:52:53.428Z,18.79
2023-05-04T17:55:19.912Z,18.65
2023-05-04T18:01:59.859Z,18.07
2023-05-04T18:04:26.361Z,18.00
2023-05-04T18:06:52.684Z,17.88
2023-05-04T18:09:19.239Z,17.74
2023-05-04T18:11:46.496Z,17.62
2023-05-04T18:14:12.874Z,17.47
2023-05-04T18:16:39.451Z,17.38
2023-05-04T18:19:06.103Z,17.28
2023-05-04T18:21:36.465Z,17.18
2023-05-04T18:24:03.851Z,17.05
2023-05-04T18:26:30.264Z,16.88
2023-05-04T18:29:04.225Z,16.77
2023-05-04T18:31:38.312Z,16.60
2023-05-04T18:34:05.274Z,16.46
2023-05-04T18:36:31.962Z,16.29
2023-05-04T18:38:59.981Z,16.05
2023-05-04T18:41:27.158Z,15.89
2023-05-04T18:43:55.406Z,15.82
2023-05-04T18:46:22.670Z,15.81
2023-05-04T18:48:49.558Z,15.76
2023-05-04T18:51:15.825Z,15.73
2023-05-04T18:53:42.182Z,15.72
2023-05-04T18:56:10.068Z,15.65
2023-05-04T18:58:37.642Z,15.61
2023-05-04T19:01:05.354Z,15.59
2023-05-04T19:03:32.175Z,15.50
2023-05-04T19:05:58.782Z,15.44
2023-05-04T19:08:25.322Z,15.33
2023-05-04T19:10:52.205Z,15.30
2023-05-04T19:13:20.411Z,15.22
2023-05-04T19:15:46.766Z,15.13
2023-05-04T19:18:13.024Z,14.96
2023-05-04T19:20:39.643Z,14.87
2023-05-04T19:23:06.499Z,14.79
2023-05-04T19:25:35.247Z,14.76
2023-05-04T19:28:09.202Z,14.72
2023-05-04T19:30:39.384Z,14.68
2023-05-04T19:33:07.523Z,14.59
2023-05-04T19:35:33.883Z,14.56
2023-05-04T19:38:00.923Z,14.52
2023-05-04T19:40:27.263Z,14.43
2023-05-04T19:42:53.545Z,14.35
2023-05-04T19:45:20.037Z,14.28
2023-05-04T19:47:47.711Z,14.20
2023-05-04T19:50:15.755Z,14.15
2023-05-04T19:52:42.159Z,14.11
2023-05-04T19:55:08.722Z,14.05
2023-05-04T19:57:35.586Z,13.99
2023-05-04T20:00:03.029Z,13.95
2023-05-04T20:02:29.596Z,13.88
2023-05-04T20:04:56.086Z,13.91
2023-05-04T20:07:22.478Z,13.94
2023-05-04T20:10:16.661Z,13.96
2023-05-04T20:12:42.930Z,13.88
2023-05-04T20:15:09.948Z,13.85
2023-05-04T20:17:36.352Z,13.84
2023-05-04T20:20:03.154Z,13.80
2023-05-04T20:22:29.498Z,13.77
2023-05-04T20:24:56.371Z,13.77
2023-05-04T20:27:22.755Z,13.75
2023-05-04T20:29:49.229Z,13.65
2023-05-04T20:32:15.837Z,13.66
2023-05-04T20:34:42.987Z,13.58
2023-05-04T20:37:09.413Z,13.47
2023-05-04T20:39:38.179Z,13.46
2023-05-04T20:42:07.466Z,13.46
2023-05-04T20:44:33.803Z,13.47
2023-05-04T20:47:00.207Z,13.43
2023-05-04T20:49:26.498Z,13.40
2023-05-04T20:51:52.843Z,13.35
2023-05-04T20:54:19.686Z,13.31
2023-05-04T20:56:45.946Z,13.30
2023-05-04T20:59:12.160Z,13.26
2023-05-04T21:01:38.546Z,13.20
2023-05-04T21:04:05.065Z,13.14
2023-05-04T21:06:31.339Z,13.06
2023-05-04T21:08:57.648Z,13.00
2023-05-04T21:11:23.993Z,12.95
2023-05-04T21:13:50.553Z,12.87
2023-05-04T21:16:19.404Z,12.76
2023-05-04T21:18:45.716Z,12.69
2023-05-04T21:21:12.058Z,12.66
2023-05-04T21:23:38.744Z,12.61
2023-05-04T21:26:05.020Z,12.54
2023-05-04T21:28:31.425Z,12.44
2023-05-04T21:30:58.397Z,12.38
2023-05-04T21:33:28.327Z,12.31
2023-05-04T21:35:54.714Z,12.30
2023-05-04T21:38:22.260Z,12.34
2023-05-04T21:40:48.934Z,12.36
2023-05-04T21:43:15.506Z,12.29
2023-05-04T21:45:41.785Z,12.22
2023-05-04T21:48:08.069Z,12.19
2023-05-04T21:50:34.409Z,12.20
2023-05-04T21:53:00.789Z,12.19
2023-05-04T21:55:28.239Z,12.16
2023-05-04T21:57:55.642Z,12.13
2023-05-04T22:01:17.041Z,12.10
2023-05-04T22:03:43.941Z,12.02
2023-05-04T22:06:10.323Z,12.01
2023-05-04T22:08:37.248Z,11.97
2023-05-04T22:11:03.554Z,11.96
2023-05-04T22:13:30.001Z,12.03
2023-05-04T22:15:56.383Z,12.07
2023-05-04T22:18:23.222Z,12.09
2023-05-04T22:20:50.186Z,12.10
2023-05-04T22:23:16.500Z,12.07
2023-05-04T22:25:42.923Z,12.00
2023-05-04T22:28:09.326Z,11.98
2023-05-04T22:30:35.809Z,11.92
2023-05-04T22:33:03.485Z,11.90
2023-05-04T22:35:30.976Z,11.83
2023-05-04T22:37:58.324Z,11.83
2023-05-04T22:40:24.995Z,11.82
2023-05-04T22:47:16.695Z,11.29
2023-05-04T22:49:43.590Z,11.31
2023-05-04T22:52:14.960Z,11.28
2023-05-04T22:54:41.598Z,11.23
2023-05-04T22:57:08.147Z,11.20
2023-05-04T22:59:34.472Z,11.13
2023-05-04T23:02:01.324Z,11.04
2023-05-04T23:04:27.740Z,10.96
2023-05-04T23:06:54.125Z,10.93
2023-05-04T23:09:20.482Z,10.92
2023-05-04T23:11:46.961Z,10.87
2023-05-04T23:14:13.448Z,10.90
2023-05-04T23:16:39.864Z,10.84
2023-05-04T23:19:06.457Z,10.79
2023-05-04T23:25:46.649Z,10.67
2023-05-04T23:28:13.007Z,10.69
2023-05-04T23:30:39.392Z,10.78
2023-05-04T23:37:32.858Z,10.60
2023-05-04T23:39:59.721Z,10.64
2023-05-04T23:42:26.141Z,10.69
2023-05-04T23:44:55.743Z,10.72
2023-05-04T23:47:22.545Z,10.76
2023-05-04T23:54:02.770Z,10.73
2023-05-04T23:56:30.473Z,10.80
2023-05-04T23:58:56.892Z,10.87
